sensor_id;sensor_type;location;lat;lon;timestamp;pressure;altitude;pressure_sealevel;temperature;humidity
20077;BME280;12348;42.710;23.378;2023-02-28T00:00:10;95597.84;;;5.46;100.00
20077;BME280;12348;42.710;23.378;2023-02-28T00:02:39;95603.91;;;5.41;100.00
20077;BME280;12348;42.710;23.378;2023-02-28T00:05:07;95611.78;;;5.31;100.00
20077;BME280;12348;42.710;23.378;2023-02-28T00:07:35;95613.41;;;5.32;100.00
20077;BME280;12348;42.710;23.378;2023-02-28T00:10:02;95619.00;;;5.30;100.00
20077;BME280;12348;42.710;23.378;2023-02-28T00:12:29;95622.63;;;5.24;100.00
20077;BME280;12348;42.710;23.378;2023-02-28T00:14:56;95625.78;;;5.21;100.00
20077;BME280;12348;42.710;23.378;2023-02-28T00:17:24;95617.44;;;5.18;100.00
20077;BME280;12348;42.710;23.378;2023-02-28T00:19:51;95621.81;;;5.24;100.00
20077;BME280;12348;42.710;23.378;2023-02-28T00:22:21;95626.44;;;5.45;100.00
20077;BME280;12348;42.710;23.378;2023-02-28T00:24:48;95625.31;;;5.63;100.00
20077;BME280;12348;42.710;23.378;2023-02-28T00:27:15;95625.41;;;5.68;100.00
20077;BME280;12348;42.710;23.378;2023-02-28T00:29:42;95638.50;;;5.70;100.00
20077;BME280;12348;42.710;23.378;2023-02-28T00:32:09;95639.31;;;5.70;100.00
20077;BME280;12348;42.710;23.378;2023-02-28T00:34:37;95638.88;;;5.56;100.00
20077;BME280;12348;42.710;23.378;2023-02-28T00:37:05;95628.69;;;5.37;100.00
20077;BME280;12348;42.710;23.378;2023-02-28T00:39:33;95636.78;;;5.42;100.00
20077;BME280;12348;42.710;23.378;2023-02-28T00:42:01;95638.56;;;5.36;100.00
20077;BME280;12348;42.710;23.378;2023-02-28T00:44:28;95631.03;;;5.33;100.00
20077;BME280;12348;42.710;23.378;2023-02-28T00:46:55;95632.25;;;5.42;100.00
20077;BME280;12348;42.710;23.378;2023-02-28T00:49:22;95631.66;;;5.40;100.00
20077;BME280;12348;42.710;23.378;2023-02-28T00:51:51;95620.44;;;5.38;100.00
20077;BME280;12348;42.710;23.378;2023-02-28T00:54:18;95605.13;;;5.33;100.00
20077;BME280;12348;42.710;23.378;2023-02-28T00:56:45;95610.03;;;5.20;100.00
20077;BME280;12348;42.710;23.378;2023-02-28T00:59:12;95608.31;;;5.14;100.00
20077;BME280;12348;42.710;23.378;2023-02-28T01:01:39;95596.66;;;5.03;100.00
20077;BME280;12348;42.710;23.378;2023-02-28T01:04:06;95609.34;;;4.96;100.00
20077;BME280;12348;42.710;23.378;2023-02-28T01:06:33;95622.47;;;4.97;100.00
20077;BME280;12348;42.710;23.378;2023-02-28T01:09:03;95618.50;;;5.17;100.00
20077;BME280;12348;42.710;23.378;2023-02-28T01:11:31;95627.41;;;5.05;100.00
20077;BME280;12348;42.710;23.378;2023-02-28T01:13:58;95610.66;;;4.93;100.00
20077;BME280;12348;42.710;23.378;2023-02-28T01:16:25;95602.00;;;4.86;100.00
20077;BME280;12348;42.710;23.378;2023-02-28T01:18:52;95604.50;;;4.76;100.00
20077;BME280;12348;42.710;23.378;2023-02-28T01:21:20;95610.22;;;4.68;100.00
20077;BME280;12348;42.710;23.378;2023-02-28T01:23:48;95603.97;;;4.62;100.00
20077;BME280;12348;42.710;23.378;2023-02-28T01:26:18;95611.44;;;4.77;100.00
20077;BME280;12348;42.710;23.378;2023-02-28T01:28:45;95611.91;;;4.74;100.00
20077;BME280;12348;42.710;23.378;2023-02-28T01:31:13;95602.84;;;4.58;100.00
20077;BME280;12348;42.710;23.378;2023-02-28T01:33:40;95602.66;;;4.48;100.00
20077;BME280;12348;42.710;23.378;2023-02-28T01:36:09;95601.19;;;4.40;100.00
20077;BME280;12348;42.710;23.378;2023-02-28T01:38:37;95597.25;;;4.43;100.00
20077;BME280;12348;42.710;23.378;2023-02-28T01:41:04;95599.09;;;4.42;100.00
20077;BME280;12348;42.710;23.378;2023-02-28T01:43:53;95604.78;;;4.46;100.00
20077;BME280;12348;42.710;23.378;2023-02-28T01:46:20;95608.81;;;4.48;100.00
20077;BME280;12348;42.710;23.378;2023-02-28T01:48:50;95616.78;;;4.77;100.00
20077;BME280;12348;42.710;23.378;2023-02-28T01:51:21;95620.97;;;4.73;100.00
20077;BME280;12348;42.710;23.378;2023-02-28T01:53:52;95616.91;;;4.53;100.00
20077;BME280;12348;42.710;23.378;2023-02-28T01:56:21;95607.56;;;4.39;100.00
20077;BME280;12348;42.710;23.378;2023-02-28T01:58:52;95604.91;;;4.39;100.00
20077;BME280;12348;42.710;23.378;2023-02-28T02:01:20;95619.75;;;4.35;100.00
20077;BME280;12348;42.710;23.378;2023-02-28T02:03:48;95620.34;;;4.37;100.00
20077;BME280;12348;42.710;23.378;2023-02-28T02:06:20;95616.28;;;4.34;100.00
20077;BME280;12348;42.710;23.378;2023-02-28T02:08:47;95604.03;;;4.33;100.00
20077;BME280;12348;42.710;23.378;2023-02-28T02:11:18;95613.03;;;4.32;100.00
20077;BME280;12348;42.710;23.378;2023-02-28T02:14:10;95614.91;;;4.32;100.00
20077;BME280;12348;42.710;23.378;2023-02-28T02:16:49;95606.53;;;4.40;100.00
20077;BME280;12348;42.710;23.378;2023-02-28T02:19:46;95604.78;;;4.46;100.00
20077;BME280;12348;42.710;23.378;2023-02-28T02:22:45;95606.44;;;4.35;100.00
20077;BME280;12348;42.710;23.378;2023-02-28T02:25:26;95602.72;;;4.36;100.00
20077;BME280;12348;42.710;23.378;2023-02-28T02:34:30;95619.69;;;4.30;100.00
20077;BME280;12348;42.710;23.378;2023-02-28T02:37:09;95619.56;;;4.25;100.00
20077;BME280;12348;42.710;23.378;2023-02-28T02:39:47;95623.03;;;4.25;100.00
20077;BME280;12348;42.710;23.378;2023-02-28T02:42:19;95623.63;;;4.27;100.00
20077;BME280;12348;42.710;23.378;2023-02-28T02:44:52;95627.91;;;4.28;100.00
20077;BME280;12348;42.710;23.378;2023-02-28T02:47:24;95637.53;;;4.18;100.00
20077;BME280;12348;42.710;23.378;2023-02-28T02:49:56;95635.69;;;4.18;100.00
20077;BME280;12348;42.710;23.378;2023-02-28T02:52:30;95630.00;;;4.26;100.00
20077;BME280;12348;42.710;23.378;2023-02-28T02:55:00;95633.09;;;4.35;100.00
20077;BME280;12348;42.710;23.378;2023-02-28T02:57:33;95618.63;;;4.76;100.00
20077;BME280;12348;42.710;23.378;2023-02-28T03:00:02;95629.16;;;4.83;100.00
20077;BME280;12348;42.710;23.378;2023-02-28T03:02:32;95627.91;;;4.74;100.00
20077;BME280;12348;42.710;23.378;2023-02-28T03:05:06;95629.63;;;4.63;100.00
20077;BME280;12348;42.710;23.378;2023-02-28T03:07:34;95644.47;;;4.59;100.00
20077;BME280;12348;42.710;23.378;2023-02-28T03:10:01;95642.72;;;4.65;100.00
20077;BME280;12348;42.710;23.378;2023-02-28T03:12:33;95658.72;;;4.65;100.00
20077;BME280;12348;42.710;23.378;2023-02-28T03:15:11;95646.84;;;4.72;100.00
20077;BME280;12348;42.710;23.378;2023-02-28T03:17:52;95656.97;;;4.87;100.00
20077;BME280;12348;42.710;23.378;2023-02-28T03:20:35;95669.13;;;5.11;100.00
20077;BME280;12348;42.710;23.378;2023-02-28T03:23:13;95663.03;;;4.82;100.00
20077;BME280;12348;42.710;23.378;2023-02-28T03:25:52;95670.38;;;4.75;100.00
20077;BME280;12348;42.710;23.378;2023-02-28T03:28:24;95660.25;;;4.77;100.00
20077;BME280;12348;42.710;23.378;2023-02-28T03:30:57;95665.19;;;4.69;100.00
20077;BME280;12348;42.710;23.378;2023-02-28T03:33:29;95682.97;;;4.63;100.00
20077;BME280;12348;42.710;23.378;2023-02-28T03:35:59;95679.56;;;4.68;100.00
20077;BME280;12348;42.710;23.378;2023-02-28T03:38:32;95690.09;;;4.74;100.00
20077;BME280;12348;42.710;23.378;2023-02-28T03:41:05;95676.47;;;4.88;100.00
20077;BME280;12348;42.710;23.378;2023-02-28T03:43:35;95688.47;;;4.73;100.00
20077;BME280;12348;42.710;23.378;2023-02-28T03:46:09;95690.31;;;4.73;100.00
20077;BME280;12348;42.710;23.378;2023-02-28T03:48:40;95684.59;;;5.09;100.00
20077;BME280;12348;42.710;23.378;2023-02-28T03:51:14;95677.84;;;4.90;100.00
20077;BME280;12348;42.710;23.378;2023-02-28T03:53:45;95687.81;;;4.66;100.00
20077;BME280;12348;42.710;23.378;2023-02-28T03:56:17;95683.59;;;4.70;100.00
20077;BME280;12348;42.710;23.378;2023-02-28T03:58:50;95682.53;;;4.83;100.00
20077;BME280;12348;42.710;23.378;2023-02-28T04:01:21;95697.25;;;4.85;100.00
20077;BME280;12348;42.710;23.378;2023-02-28T04:03:50;95695.59;;;4.68;100.00
20077;BME280;12348;42.710;23.378;2023-02-28T04:06:20;95704.59;;;4.67;100.00
20077;BME280;12348;42.710;23.378;2023-02-28T04:08:48;95697.16;;;4.40;100.00
20077;BME280;12348;42.710;23.378;2023-02-28T04:11:20;95694.03;;;4.43;100.00
20077;BME280;12348;42.710;23.378;2023-02-28T04:13:47;95686.28;;;4.42;100.00
20077;BME280;12348;42.710;23.378;2023-02-28T04:16:14;95684.41;;;4.42;100.00
20077;BME280;12348;42.710;23.378;2023-02-28T04:18:42;95692.50;;;4.47;100.00
20077;BME280;12348;42.710;23.378;2023-02-28T04:21:10;95689.97;;;4.52;100.00
20077;BME280;12348;42.710;23.378;2023-02-28T04:23:39;95692.72;;;4.57;100.00
20077;BME280;12348;42.710;23.378;2023-02-28T04:26:05;95685.41;;;4.81;100.00
20077;BME280;12348;42.710;23.378;2023-02-28T04:28:33;95682.72;;;5.10;100.00
20077;BME280;12348;42.710;23.378;2023-02-28T04:31:02;95682.00;;;5.15;100.00
20077;BME280;12348;42.710;23.378;2023-02-28T04:33:30;95681.94;;;4.81;100.00
20077;BME280;12348;42.710;23.378;2023-02-28T04:36:01;95689.09;;;4.64;100.00
20077;BME280;12348;42.710;23.378;2023-02-28T04:38:28;95698.13;;;4.62;100.00
20077;BME280;12348;42.710;23.378;2023-02-28T04:40:58;95693.63;;;4.63;100.00
20077;BME280;12348;42.710;23.378;2023-02-28T04:43:26;95695.47;;;4.62;100.00
20077;BME280;12348;42.710;23.378;2023-02-28T04:45:53;95689.84;;;5.21;100.00
20077;BME280;12348;42.710;23.378;2023-02-28T04:48:22;95697.44;;;5.13;100.00
20077;BME280;12348;42.710;23.378;2023-02-28T04:50:48;95707.94;;;4.74;100.00
20077;BME280;12348;42.710;23.378;2023-02-28T04:53:15;95701.75;;;4.56;100.00
20077;BME280;12348;42.710;23.378;2023-02-28T04:55:42;95710.50;;;4.40;100.00
20077;BME280;12348;42.710;23.378;2023-02-28T04:58:10;95703.31;;;4.41;100.00
20077;BME280;12348;42.710;23.378;2023-02-28T05:00:37;95714.09;;;4.46;100.00
20077;BME280;12348;42.710;23.378;2023-02-28T05:03:03;95718.28;;;4.42;100.00
20077;BME280;12348;42.710;23.378;2023-02-28T05:05:30;95719.63;;;4.44;100.00
20077;BME280;12348;42.710;23.378;2023-02-28T05:07:57;95708.75;;;4.46;100.00
20077;BME280;12348;42.710;23.378;2023-02-28T05:10:24;95714.19;;;4.79;100.00
20077;BME280;12348;42.710;23.378;2023-02-28T05:12:50;95717.25;;;4.71;100.00
20077;BME280;12348;42.710;23.378;2023-02-28T05:15:18;95717.97;;;4.55;100.00
20077;BME280;12348;42.710;23.378;2023-02-28T05:17:45;95722.75;;;4.53;100.00
20077;BME280;12348;42.710;23.378;2023-02-28T05:20:12;95719.06;;;4.42;100.00
20077;BME280;12348;42.710;23.378;2023-02-28T05:22:40;95725.81;;;4.33;100.00
20077;BME280;12348;42.710;23.378;2023-02-28T05:25:08;95737.06;;;4.35;100.00
20077;BME280;12348;42.710;23.378;2023-02-28T05:27:37;95738.13;;;4.34;100.00
20077;BME280;12348;42.710;23.378;2023-02-28T05:30:05;95736.06;;;4.65;100.00
20077;BME280;12348;42.710;23.378;2023-02-28T05:32:37;95737.81;;;4.88;100.00
20077;BME280;12348;42.710;23.378;2023-02-28T05:35:04;95746.78;;;5.10;100.00
20077;BME280;12348;42.710;23.378;2023-02-28T05:37:31;95737.50;;;5.13;100.00
20077;BME280;12348;42.710;23.378;2023-02-28T05:39:58;95735.00;;;5.23;100.00
20077;BME280;12348;42.710;23.378;2023-02-28T05:42:24;95734.03;;;5.29;100.00
20077;BME280;12348;42.710;23.378;2023-02-28T05:44:51;95737.59;;;5.34;100.00
20077;BME280;12348;42.710;23.378;2023-02-28T05:47:18;95750.53;;;5.26;100.00
20077;BME280;12348;42.710;23.378;2023-02-28T05:49:46;95750.69;;;5.19;100.00
20077;BME280;12348;42.710;23.378;2023-02-28T05:52:13;95751.88;;;4.83;100.00
20077;BME280;12348;42.710;23.378;2023-02-28T05:54:39;95749.03;;;5.01;100.00
20077;BME280;12348;42.710;23.378;2023-02-28T05:57:06;95753.56;;;5.01;100.00
20077;BME280;12348;42.710;23.378;2023-02-28T05:59:33;95756.41;;;4.82;100.00
20077;BME280;12348;42.710;23.378;2023-02-28T06:02:00;95760.75;;;4.72;100.00
20077;BME280;12348;42.710;23.378;2023-02-28T06:04:27;95762.25;;;4.68;100.00
20077;BME280;12348;42.710;23.378;2023-02-28T06:06:55;95763.66;;;4.58;100.00
20077;BME280;12348;42.710;23.378;2023-02-28T06:09:22;95761.91;;;4.64;100.00
20077;BME280;12348;42.710;23.378;2023-02-28T06:11:50;95762.00;;;4.69;100.00
20077;BME280;12348;42.710;23.378;2023-02-28T06:14:18;95754.00;;;4.69;100.00
20077;BME280;12348;42.710;23.378;2023-02-28T06:16:45;95764.25;;;5.18;100.00
20077;BME280;12348;42.710;23.378;2023-02-28T06:19:12;95756.22;;;5.46;100.00
20077;BME280;12348;42.710;23.378;2023-02-28T06:21:40;95757.44;;;5.55;100.00
20077;BME280;12348;42.710;23.378;2023-02-28T06:24:08;95755.97;;;5.48;100.00
20077;BME280;12348;42.710;23.378;2023-02-28T06:26:35;95754.22;;;5.53;100.00
20077;BME280;12348;42.710;23.378;2023-02-28T06:29:02;95754.59;;;5.62;100.00
20077;BME280;12348;42.710;23.378;2023-02-28T06:31:29;95756.47;;;5.62;100.00
20077;BME280;12348;42.710;23.378;2023-02-28T06:33:56;95763.75;;;5.66;100.00
20077;BME280;12348;42.710;23.378;2023-02-28T06:36:22;95760.94;;;5.73;100.00
20077;BME280;12348;42.710;23.378;2023-02-28T06:38:49;95770.34;;;5.92;100.00
20077;BME280;12348;42.710;23.378;2023-02-28T06:41:22;95768.84;;;5.84;100.00
20077;BME280;12348;42.710;23.378;2023-02-28T06:43:49;95767.88;;;5.74;100.00
20077;BME280;12348;42.710;23.378;2023-02-28T06:46:16;95767.72;;;5.64;100.00
20077;BME280;12348;42.710;23.378;2023-02-28T06:48:43;95775.81;;;5.69;100.00
20077;BME280;12348;42.710;23.378;2023-02-28T06:51:12;95772.91;;;5.70;100.00
20077;BME280;12348;42.710;23.378;2023-02-28T06:53:40;95764.72;;;5.60;100.00
20077;BME280;12348;42.710;23.378;2023-02-28T06:56:09;95771.28;;;5.69;100.00
20077;BME280;12348;42.710;23.378;2023-02-28T06:58:38;95774.50;;;5.71;100.00
20077;BME280;12348;42.710;23.378;2023-02-28T07:01:06;95771.78;;;5.83;100.00
20077;BME280;12348;42.710;23.378;2023-02-28T07:03:34;95772.28;;;5.97;100.00
20077;BME280;12348;42.710;23.378;2023-02-28T07:06:01;95766.00;;;6.25;100.00
20077;BME280;12348;42.710;23.378;2023-02-28T07:08:29;95771.13;;;6.48;100.00
20077;BME280;12348;42.710;23.378;2023-02-28T07:10:57;95775.09;;;6.24;100.00
20077;BME280;12348;42.710;23.378;2023-02-28T07:13:24;95766.44;;;6.17;100.00
20077;BME280;12348;42.710;23.378;2023-02-28T07:15:57;95769.16;;;6.22;100.00
20077;BME280;12348;42.710;23.378;2023-02-28T07:18:24;95768.38;;;6.21;100.00
20077;BME280;12348;42.710;23.378;2023-02-28T07:20:51;95768.50;;;6.31;100.00
20077;BME280;12348;42.710;23.378;2023-02-28T07:23:18;95773.97;;;6.42;100.00
20077;BME280;12348;42.710;23.378;2023-02-28T07:25:45;95771.28;;;6.59;100.00
20077;BME280;12348;42.710;23.378;2023-02-28T07:28:12;95771.50;;;6.79;100.00
20077;BME280;12348;42.710;23.378;2023-02-28T07:30:40;95763.31;;;6.64;100.00
20077;BME280;12348;42.710;23.378;2023-02-28T07:33:08;95772.75;;;6.71;100.00
20077;BME280;12348;42.710;23.378;2023-02-28T07:35:36;95779.50;;;6.74;100.00
20077;BME280;12348;42.710;23.378;2023-02-28T07:38:03;95767.91;;;6.90;100.00
20077;BME280;12348;42.710;23.378;2023-02-28T07:40:30;95763.94;;;7.20;100.00
20077;BME280;12348;42.710;23.378;2023-02-28T07:42:58;95767.06;;;7.39;100.00
20077;BME280;12348;42.710;23.378;2023-02-28T07:45:25;95765.44;;;7.65;100.00
20077;BME280;12348;42.710;23.378;2023-02-28T07:47:54;95776.75;;;7.72;100.00
20077;BME280;12348;42.710;23.378;2023-02-28T07:50:23;95769.72;;;7.98;100.00
20077;BME280;12348;42.710;23.378;2023-02-28T07:52:49;95766.16;;;7.87;100.00
20077;BME280;12348;42.710;23.378;2023-02-28T07:55:16;95768.03;;;7.87;100.00
20077;BME280;12348;42.710;23.378;2023-02-28T07:57:43;95765.81;;;8.11;100.00
20077;BME280;12348;42.710;23.378;2023-02-28T08:00:11;95760.19;;;8.17;100.00
20077;BME280;12348;42.710;23.378;2023-02-28T08:02:39;95755.00;;;8.38;100.00
20077;BME280;12348;42.710;23.378;2023-02-28T08:05:06;95759.22;;;8.76;100.00
20077;BME280;12348;42.710;23.378;2023-02-28T08:07:35;95759.63;;;9.15;100.00
20077;BME280;12348;42.710;23.378;2023-02-28T08:10:02;95754.78;;;9.17;100.00
20077;BME280;12348;42.710;23.378;2023-02-28T08:12:31;95755.34;;;9.19;100.00
20077;BME280;12348;42.710;23.378;2023-02-28T08:14:57;95761.75;;;9.08;100.00
20077;BME280;12348;42.710;23.378;2023-02-28T08:17:24;95761.50;;;9.25;100.00
20077;BME280;12348;42.710;23.378;2023-02-28T08:19:51;95754.56;;;9.34;100.00
20077;BME280;12348;42.710;23.378;2023-02-28T08:22:17;95749.78;;;9.82;100.00
20077;BME280;12348;42.710;23.378;2023-02-28T08:24:45;95755.94;;;10.08;100.00
20077;BME280;12348;42.710;23.378;2023-02-28T08:27:13;95756.75;;;10.04;100.00
20077;BME280;12348;42.710;23.378;2023-02-28T08:29:39;95757.53;;;10.14;100.00
20077;BME280;12348;42.710;23.378;2023-02-28T08:32:07;95774.22;;;9.45;100.00
20077;BME280;12348;42.710;23.378;2023-02-28T08:34:33;95762.13;;;9.63;100.00
20077;BME280;12348;42.710;23.378;2023-02-28T08:37:00;95777.75;;;9.71;100.00
20077;BME280;12348;42.710;23.378;2023-02-28T08:39:27;95769.13;;;9.79;100.00
20077;BME280;12348;42.710;23.378;2023-02-28T08:41:55;95771.78;;;9.59;100.00
20077;BME280;12348;42.710;23.378;2023-02-28T08:44:21;95768.56;;;9.67;100.00
20077;BME280;12348;42.710;23.378;2023-02-28T08:46:48;95779.56;;;9.35;100.00
20077;BME280;12348;42.710;23.378;2023-02-28T08:49:15;95779.28;;;9.26;100.00
20077;BME280;12348;42.710;23.378;2023-02-28T08:51:42;95778.22;;;9.37;100.00
20077;BME280;12348;42.710;23.378;2023-02-28T08:54:08;95766.16;;;9.65;100.00
20077;BME280;12348;42.710;23.378;2023-02-28T08:56:38;95752.44;;;9.77;100.00
20077;BME280;12348;42.710;23.378;2023-02-28T08:59:09;95764.28;;;10.02;100.00
20077;BME280;12348;42.710;23.378;2023-02-28T09:01:35;95761.34;;;9.98;100.00
20077;BME280;12348;42.710;23.378;2023-02-28T09:04:02;95772.06;;;10.18;100.00
20077;BME280;12348;42.710;23.378;2023-02-28T09:06:29;95763.19;;;10.33;100.00
20077;BME280;12348;42.710;23.378;2023-02-28T09:08:56;95763.44;;;10.57;100.00
20077;BME280;12348;42.710;23.378;2023-02-28T09:11:25;95770.75;;;9.95;100.00
20077;BME280;12348;42.710;23.378;2023-02-28T09:13:52;95762.41;;;9.87;100.00
20077;BME280;12348;42.710;23.378;2023-02-28T09:16:22;95747.56;;;10.15;100.00
20077;BME280;12348;42.710;23.378;2023-02-28T09:18:49;95765.88;;;9.92;100.00
20077;BME280;12348;42.710;23.378;2023-02-28T09:21:18;95765.63;;;9.89;100.00
20077;BME280;12348;42.710;23.378;2023-02-28T09:23:47;95755.13;;;9.77;100.00
20077;BME280;12348;42.710;23.378;2023-02-28T09:26:16;95764.84;;;9.83;100.00
20077;BME280;12348;42.710;23.378;2023-02-28T09:28:45;95770.44;;;9.51;100.00
20077;BME280;12348;42.710;23.378;2023-02-28T09:31:12;95765.63;;;9.79;100.00
20077;BME280;12348;42.710;23.378;2023-02-28T09:33:41;95769.91;;;10.15;100.00
20077;BME280;12348;42.710;23.378;2023-02-28T09:36:08;95749.22;;;10.16;100.00
20077;BME280;12348;42.710;23.378;2023-02-28T09:38:34;95761.31;;;10.18;100.00
20077;BME280;12348;42.710;23.378;2023-02-28T09:41:04;95749.75;;;10.13;100.00
20077;BME280;12348;42.710;23.378;2023-02-28T09:43:39;95783.91;;;10.17;100.00
20077;BME280;12348;42.710;23.378;2023-02-28T09:46:14;95750.81;;;10.22;100.00
20077;BME280;12348;42.710;23.378;2023-02-28T09:48:47;95757.25;;;10.41;100.00
20077;BME280;12348;42.710;23.378;2023-02-28T09:51:26;95753.94;;;10.70;100.00
20077;BME280;12348;42.710;23.378;2023-02-28T09:53:54;95750.25;;;10.51;100.00
20077;BME280;12348;42.710;23.378;2023-02-28T09:56:24;95750.25;;;10.51;100.00
20077;BME280;12348;42.710;23.378;2023-02-28T09:58:55;95748.13;;;10.42;100.00
20077;BME280;12348;42.710;23.378;2023-02-28T10:01:27;95737.59;;;10.41;100.00
20077;BME280;12348;42.710;23.378;2023-02-28T10:04:01;95743.00;;;10.46;100.00
20077;BME280;12348;42.710;23.378;2023-02-28T10:06:35;95738.84;;;10.74;100.00
20077;BME280;12348;42.710;23.378;2023-02-28T10:09:08;95739.75;;;11.09;100.00
20077;BME280;12348;42.710;23.378;2023-02-28T10:11:39;95739.75;;;11.09;100.00
20077;BME280;12348;42.710;23.378;2023-02-28T10:14:13;95733.94;;;10.86;100.00
20077;BME280;12348;42.710;23.378;2023-02-28T10:16:44;95731.00;;;10.88;100.00
20077;BME280;12348;42.710;23.378;2023-02-28T10:19:20;95730.53;;;10.60;100.00
20077;BME280;12348;42.710;23.378;2023-02-28T10:21:55;95729.66;;;10.85;100.00
20077;BME280;12348;42.710;23.378;2023-02-28T10:24:47;95734.72;;;10.97;100.00
20077;BME280;12348;42.710;23.378;2023-02-28T10:27:17;95719.84;;;11.10;100.00
20077;BME280;12348;42.710;23.378;2023-02-28T10:33:15;95723.16;;;10.91;100.00
20077;BME280;12348;42.710;23.378;2023-02-28T10:35:45;95718.44;;;10.53;100.00
20077;BME280;12348;42.710;23.378;2023-02-28T10:38:17;95717.22;;;10.89;100.00
20077;BME280;12348;42.710;23.378;2023-02-28T10:40:44;95715.56;;;11.04;100.00
20077;BME280;12348;42.710;23.378;2023-02-28T10:43:22;95705.84;;;11.86;100.00
20077;BME280;12348;42.710;23.378;2023-02-28T10:45:56;95698.75;;;11.61;100.00
20077;BME280;12348;42.710;23.378;2023-02-28T10:48:33;95710.78;;;11.35;100.00
20077;BME280;12348;42.710;23.378;2023-02-28T10:51:03;95703.13;;;11.52;100.00
20077;BME280;12348;42.710;23.378;2023-02-28T10:53:38;95707.56;;;11.33;100.00
20077;BME280;12348;42.710;23.378;2023-02-28T10:56:15;95679.66;;;11.53;100.00
20077;BME280;12348;42.710;23.378;2023-02-28T10:58:49;95681.72;;;11.66;100.00
20077;BME280;12348;42.710;23.378;2023-02-28T11:01:19;95683.59;;;11.65;100.00
20077;BME280;12348;42.710;23.378;2023-02-28T11:03:46;95679.25;;;12.04;100.00
20077;BME280;12348;42.710;23.378;2023-02-28T11:06:17;95675.47;;;12.53;100.00
20077;BME280;12348;42.710;23.378;2023-02-28T11:08:50;95680.69;;;12.68;100.00
20077;BME280;12348;42.710;23.378;2023-02-28T11:11:19;95674.31;;;12.35;100.00
20077;BME280;12348;42.710;23.378;2023-02-28T11:13:47;95680.75;;;12.15;100.00
20077;BME280;12348;42.710;23.378;2023-02-28T11:16:16;95675.66;;;11.84;100.00
20077;BME280;12348;42.710;23.378;2023-02-28T11:18:48;95672.72;;;12.10;100.00
20077;BME280;12348;42.710;23.378;2023-02-28T11:21:20;95657.81;;;11.54;100.00
20077;BME280;12348;42.710;23.378;2023-02-28T11:23:51;95661.19;;;11.65;100.00
20077;BME280;12348;42.710;23.378;2023-02-28T11:26:38;95660.41;;;11.30;100.00
20077;BME280;12348;42.710;23.378;2023-02-28T11:29:17;95654.03;;;11.16;100.00
20077;BME280;12348;42.710;23.378;2023-02-28T11:32:00;95646.72;;;11.90;100.00
20077;BME280;12348;42.710;23.378;2023-02-28T11:34:28;95663.31;;;11.73;100.00
20077;BME280;12348;42.710;23.378;2023-02-28T11:36:58;95668.34;;;11.80;100.00
20077;BME280;12348;42.710;23.378;2023-02-28T11:39:25;95651.88;;;11.52;100.00
20077;BME280;12348;42.710;23.378;2023-02-28T11:42:06;95643.28;;;11.50;100.00
20077;BME280;12348;42.710;23.378;2023-02-28T11:44:47;95649.50;;;11.46;100.00
20077;BME280;12348;42.710;23.378;2023-02-28T11:47:28;95655.00;;;11.35;100.00
20077;BME280;12348;42.710;23.378;2023-02-28T11:50:09;95635.06;;;11.95;100.00
20077;BME280;12348;42.710;23.378;2023-02-28T11:52:46;95660.38;;;12.52;100.00
20077;BME280;12348;42.710;23.378;2023-02-28T11:55:17;95639.94;;;11.93;100.00
20077;BME280;12348;42.710;23.378;2023-02-28T12:03:50;95645.03;;;12.23;100.00
20077;BME280;12348;42.710;23.378;2023-02-28T12:06:25;95651.13;;;12.77;100.00
20077;BME280;12348;42.710;23.378;2023-02-28T12:09:20;95646.22;;;12.12;100.00
20077;BME280;12348;42.710;23.378;2023-02-28T12:11:52;95657.41;;;12.24;100.00
20077;BME280;12348;42.710;23.378;2023-02-28T12:17:37;95643.50;;;12.36;100.00
20077;BME280;12348;42.710;23.378;2023-02-28T12:20:11;95640.34;;;12.53;100.00
20077;BME280;12348;42.710;23.378;2023-02-28T12:22:48;95636.81;;;12.33;100.00
20077;BME280;12348;42.710;23.378;2023-02-28T12:25:39;95635.34;;;11.93;100.00
20077;BME280;12348;42.710;23.378;2023-02-28T12:28:13;95639.25;;;12.06;100.00
20077;BME280;12348;42.710;23.378;2023-02-28T12:30:46;95648.72;;;11.74;100.00
20077;BME280;12348;42.710;23.378;2023-02-28T12:33:17;95641.91;;;12.11;100.00
20077;BME280;12348;42.710;23.378;2023-02-28T12:35:51;95641.19;;;12.29;100.00
20077;BME280;12348;42.710;23.378;2023-02-28T12:38:24;95627.06;;;11.84;100.00
20077;BME280;12348;42.710;23.378;2023-02-28T12:40:57;95631.72;;;11.45;100.00
20077;BME280;12348;42.710;23.378;2023-02-28T12:43:32;95604.69;;;11.50;100.00
20077;BME280;12348;42.710;23.378;2023-02-28T12:46:02;95631.59;;;11.26;100.00
20077;BME280;12348;42.710;23.378;2023-02-28T12:48:39;95614.63;;;11.20;100.00
20077;BME280;12348;42.710;23.378;2023-02-28T12:51:08;95610.25;;;11.29;100.00
20077;BME280;12348;42.710;23.378;2023-02-28T12:53:49;95618.81;;;11.71;100.00
20077;BME280;12348;42.710;23.378;2023-02-28T12:56:24;95633.19;;;11.61;100.00
20077;BME280;12348;42.710;23.378;2023-02-28T12:58:59;95610.53;;;11.62;100.00
20077;BME280;12348;42.710;23.378;2023-02-28T13:01:42;95616.97;;;11.66;100.00
20077;BME280;12348;42.710;23.378;2023-02-28T13:04:32;95619.69;;;11.61;100.00
20077;BME280;12348;42.710;23.378;2023-02-28T13:10:00;95612.44;;;11.61;100.00
20077;BME280;12348;42.710;23.378;2023-02-28T13:12:30;95613.94;;;11.73;100.00
20077;BME280;12348;42.710;23.378;2023-02-28T13:15:05;95623.06;;;11.48;100.00
20077;BME280;12348;42.710;23.378;2023-02-28T13:17:38;95612.22;;;11.53;100.00
20077;BME280;12348;42.710;23.378;2023-02-28T13:20:15;95615.06;;;11.67;100.00
20077;BME280;12348;42.710;23.378;2023-02-28T13:22:44;95614.22;;;11.71;100.00
20077;BME280;12348;42.710;23.378;2023-02-28T13:25:50;95609.38;;;11.68;100.00